Date,TemperatureHighF,TemperatureAvgF,TemperatureLowF,DewpointHighF,DewpointAvgF,DewpointLowF,HumidityHigh,HumidityAvg,HumidityLow,PressureMaxIn,PressureMinIn,WindSpeedMaxMPH,WindSpeedAvgMPH,GustSpeedMaxMPH,PrecipitationSumIn
2013-4-1,48,38,30,46,32,14,100,81,45,29.34,29.09,19,2,20,0.37
2013-4-2,35,30,25,14,11,8,54,44,31,29.44,29.32,22,5,28,0.00
2013-4-3,41,32,25,16,11,4,57,39,21,29.72,29.43,26,4,28,0.00
2013-4-4,52,38,25,24,15,8,76,40,21,29.83,29.51,19,3,21,0.00
2013-4-5,52,39,29,33,24,16,81,57,29,29.51,29.29,22,5,24,0.00
2013-4-6,41,31,24,16,8,4,54,37,19,29.86,29.49,25,6,28,0.01
2013-4-7,56,41,27,36,22,11,69,47,29,29.85,29.46,27,7,32,0.02
2013-4-8,59,46,36,38,33,26,89,61,31,29.69,29.49,20,4,20,0.00
2013-4-9,58,47,42,49,41,32,98,80,49,29.62,29.45,15,3,16,0.18
2013-4-10,50,44,41,47,43,40,100,96,85,29.57,29.47,10,2,10,0.62
2013-4-11,44,41,37,43,28,16,100,64,33,29.75,29.46,18,4,20,0.01
2013-4-12,37,33,30,32,27,16,93,80,42,29.74,29.43,19,3,20,0.05
2013-4-13,53,40,32,43,35,31,99,84,48,29.49,29.35,11,1,12,0.47
2013-4-14,48,39,30,39,33,28,100,78,47,29.80,29.47,20,2,23,0.01
2013-4-15,60,42,26,40,32,26,100,70,34,29.95,29.79,12,2,14,0.00
2013-4-16,60,50,37,52,41,31,98,74,53,29.90,29.55,24,5,28,0.05
2013-4-17,58,49,36,51,34,24,98,60,31,29.93,29.61,25,5,25,0.01
2013-4-18,61,47,29,38,31,26,96,58,35,29.99,29.64,24,5,26,0.00
2013-4-19,72,62,52,60,53,38,91,76,55,29.64,29.09,30,8,39,0.17
2013-4-20,54,45,36,51,32,16,97,65,34,29.82,29.22,23,4,24,0.20
2013-4-21,49,38,29,21,17,14,68,42,24,30.25,29.81,21,5,21,0.00
2013-4-22,54,39,24,31,21,16,91,53,23,30.32,30.14,19,2,20,0.00
2013-4-23,41,37,28,37,32,26,93,81,70,30.16,29.75,12,2,13,0.00
2013-4-24,75,55,39,46,40,36,90,61,26,29.75,29.28,23,4,25,0.00
2013-4-25,61,50,35,48,31,23,72,49,27,29.87,29.28,28,5,28,0.00
2013-4-26,57,44,28,37,30,24,94,60,33,30.00,29.87,14,2,15,0.00
2013-4-27,65,48,31,41,31,18,98,58,19,30.02,29.84,12,2,14,0.00
2013-4-28,73,53,31,39,32,28,96,52,21,29.92,29.71,16,2,18,0.00
2013-4-29,68,56,42,46,37,35,88,51,30,29.82,29.70,18,4,21,0.00
2013-4-30,74,61,51,41,33,24,53,36,24,29.91,29.79,14,2,15,0.00